Time;durP1;ratioP1;P1;durP2;ratioP2;P2;SDS_P1;SDS_P2;PMS_P1;PMS_P2;Temp;Humidity;BMP_temperature;BMP_pressure;BME280_temperature;BME280_humidity;BME280_pressure;Samples;Min_cycle;Max_cycle;Signal;HPM_P1;HPM_P2
2022/05/16 00:00:18;;;;;;;6.00;3.22;;;16.80;59.20;;;;;;4980246;28;20065;-81
2022/05/16 00:02:43;;;;;;;7.00;3.08;;;16.80;59.50;;;;;;4985019;28;20421;-81
2022/05/16 00:05:09;;;;;;;6.97;2.92;;;16.70;59.60;;;;;;4997355;28;20060;-82
2022/05/16 00:07:35;;;;;;;10.65;4.30;;;16.60;59.80;;;;;;4980384;28;20038;-82
2022/05/16 00:10:00;;;;;;;8.35;3.17;;;16.60;59.80;;;;;;4994531;28;20079;-81
2022/05/16 00:12:26;;;;;;;5.05;3.65;;;16.70;59.80;;;;;;4994145;28;20044;-82
2022/05/16 00:14:51;;;;;;;7.32;3.20;;;16.50;60.60;;;;;;4984615;28;20116;-82
2022/05/16 00:17:17;;;;;;;8.90;3.40;;;16.50;60.50;;;;;;4994469;28;20031;-81
2022/05/16 00:19:43;;;;;;;8.18;3.35;;;16.50;60.10;;;;;;4987485;28;20095;-82
2022/05/16 00:22:08;;;;;;;5.40;3.92;;;16.40;60.50;;;;;;4995114;28;20026;-82
2022/05/16 00:24:34;;;;;;;7.88;3.38;;;16.30;61.90;;;;;;4995128;28;20084;-81
2022/05/16 00:27:00;;;;;;;9.40;3.42;;;16.20;62.00;;;;;;4978221;28;20027;-82
2022/05/16 00:29:26;;;;;;;7.88;3.78;;;16.20;61.10;;;;;;4979435;28;20435;-81
2022/05/16 00:31:53;;;;;;;9.82;3.75;;;16.00;61.70;;;;;;4997049;28;20456;-82
2022/05/16 00:34:19;;;;;;;7.32;3.35;;;16.10;63.80;;;;;;4975103;28;20034;-81
2022/05/16 00:36:47;;;;;;;8.45;4.00;;;16.10;61.90;;;;;;4972273;28;20175;-82
2022/05/16 00:39:14;;;;;;;9.27;3.22;;;16.10;63.40;;;;;;4983705;28;20489;-82
2022/05/16 00:41:41;;;;;;;8.10;3.40;;;16.10;61.70;;;;;;4995610;28;20034;-82
2022/05/16 00:44:06;;;;;;;10.77;4.03;;;16.00;61.40;;;;;;4994823;28;20084;-81
2022/05/16 00:46:32;;;;;;;8.25;3.80;;;15.90;61.40;;;;;;4963328;28;20113;-81
2022/05/16 00:48:58;;;;;;;11.20;3.97;;;15.70;62.00;;;;;;4980821;28;20094;-81
2022/05/16 00:51:28;;;;;;;6.47;3.70;;;15.60;62.20;;;;;;4996060;28;20026;-81
2022/05/16 00:53:55;;;;;;;11.27;3.97;;;15.70;62.80;;;;;;4977549;28;20038;-81
2022/05/16 00:56:22;;;;;;;6.90;3.80;;;15.50;63.80;;;;;;4975749;28;20034;-81
2022/05/16 00:58:49;;;;;;;10.27;4.03;;;15.60;64.00;;;;;;4993596;28;20683;-81
2022/05/16 01:06:42;;;;;;;8.95;4.00;;;15.50;64.00;;;;;;4981413;28;20030;-82
2022/05/16 01:09:08;;;;;;;7.97;3.92;;;15.60;64.20;;;;;;4997183;28;20680;-81
2022/05/16 01:11:34;;;;;;;11.38;4.15;;;15.60;63.70;;;;;;4977557;28;20046;-81
2022/05/16 01:14:00;;;;;;;9.65;4.18;;;15.60;63.30;;;;;;4982600;28;20501;-81
2022/05/16 01:16:25;;;;;;;13.45;4.72;;;15.50;64.10;;;;;;4985847;28;20025;-81
2022/05/16 01:18:51;;;;;;;7.40;3.97;;;15.50;65.00;;;;;;4995022;28;20030;-81
2022/05/16 01:21:34;;;;;;;8.38;3.72;;;15.50;65.60;;;;;;4991720;28;20038;-81
2022/05/16 01:24:09;;;;;;;13.73;4.95;;;15.30;64.70;;;;;;4994787;28;20540;-82
2022/05/16 01:26:35;;;;;;;7.13;3.72;;;15.20;65.60;;;;;;4997337;28;20030;-81
2022/05/16 01:29:01;;;;;;;10.93;4.15;;;15.30;66.70;;;;;;4981526;28;20402;-81
2022/05/16 01:31:26;;;;;;;8.15;4.00;;;15.40;66.10;;;;;;4967674;28;20052;-81
2022/05/16 01:33:52;;;;;;;8.23;3.63;;;15.30;64.70;;;;;;4991008;28;20057;-81
2022/05/16 01:36:18;;;;;;;9.15;3.38;;;15.10;65.70;;;;;;4985276;28;20126;-81
2022/05/16 01:38:43;;;;;;;6.80;3.85;;;15.00;67.10;;;;;;4981662;28;20069;-81
2022/05/16 01:41:11;;;;;;;8.43;3.80;;;15.10;68.00;;;;;;4981315;28;20035;-81
2022/05/16 01:43:39;;;;;;;10.75;3.92;;;15.20;68.90;;;;;;4980352;28;20031;-82
2022/05/16 01:46:05;;;;;;;7.88;4.68;;;15.10;68.60;;;;;;4977370;28;20034;-81
2022/05/16 01:48:31;;;;;;;8.98;4.35;;;15.20;67.30;;;;;;4975061;28;20451;-80
2022/05/16 01:51:03;;;;;;;10.68;4.10;;;15.20;67.70;;;;;;4964597;28;20026;-81
2022/05/16 01:53:29;;;;;;;9.98;4.05;;;15.00;66.70;;;;;;4978477;28;20049;-81
2022/05/16 01:55:54;;;;;;;8.40;3.90;;;15.00;69.60;;;;;;4996153;28;20068;-82
2022/05/16 01:58:20;;;;;;;9.25;4.88;;;15.00;67.30;;;;;;4983451;28;20490;-81
2022/05/16 02:00:46;;;;;;;6.45;4.00;;;14.90;66.80;;;;;;4993396;28;20331;-81
2022/05/16 02:03:11;;;;;;;8.50;3.55;;;14.80;67.90;;;;;;4973733;28;20387;-81
2022/05/16 02:05:37;;;;;;;10.25;4.22;;;14.70;70.50;;;;;;4977377;28;20061;-81
2022/05/16 02:08:03;;;;;;;13.07;4.95;;;14.70;70.30;;;;;;4979607;28;20034;-81
2022/05/16 02:10:28;;;;;;;10.52;4.82;;;14.80;68.70;;;;;;4977359;28;20069;-81
2022/05/16 02:12:58;;;;;;;10.35;5.10;;;14.70;69.70;;;;;;4991453;28;20490;-81
2022/05/16 02:15:25;;;;;;;11.30;5.05;;;14.60;69.60;;;;;;4960931;28;20038;-81
2022/05/16 02:17:50;;;;;;;10.25;4.75;;;14.60;71.90;;;;;;4980311;28;20041;-81
2022/05/16 02:20:16;;;;;;;6.82;4.28;;;14.60;70.60;;;;;;4991898;28;20394;-81
2022/05/16 02:25:26;;;;;;;7.80;4.20;;;14.60;70.10;;;;;;4993582;28;20046;-81
2022/05/16 02:27:51;;;;;;;9.93;4.47;;;14.50;72.00;;;;;;4990840;28;20121;-81
2022/05/16 02:30:17;;;;;;;10.65;5.28;;;14.60;74.30;;;;;;4958778;28;20029;-81
2022/05/16 02:32:42;;;;;;;9.55;3.85;;;14.60;73.70;;;;;;4987780;28;20426;-81
2022/05/16 02:35:08;;;;;;;11.98;4.63;;;14.60;71.70;;;;;;4977013;28;20034;-81
2022/05/16 02:37:34;;;;;;;12.18;4.28;;;14.60;71.70;;;;;;4994060;28;20033;-81
2022/05/16 02:39:59;;;;;;;6.53;4.53;;;14.50;71.80;;;;;;4967115;28;20018;-81
2022/05/16 02:42:25;;;;;;;7.75;4.53;;;14.50;73.40;;;;;;4985780;28;20482;-81
2022/05/16 02:44:53;;;;;;;5.45;3.60;;;14.50;79.20;;;;;;4968347;28;20065;-81
2022/05/16 02:47:20;;;;;;;10.75;4.50;;;14.70;72.30;;;;;;4981418;28;20027;-81
2022/05/16 02:49:45;;;;;;;9.73;4.53;;;14.60;72.60;;;;;;4988549;28;20053;-81
2022/05/16 02:52:15;;;;;;;8.27;5.07;;;14.50;76.00;;;;;;4982542;28;20046;-79
2022/05/16 02:54:40;;;;;;;11.32;4.60;;;14.50;77.00;;;;;;4982192;28;20045;-78
2022/05/16 02:57:06;;;;;;;9.63;5.47;;;14.50;75.20;;;;;;4983961;28;20030;-79
2022/05/16 02:59:33;;;;;;;8.52;4.70;;;14.50;80.80;;;;;;4982290;28;20033;-79
2022/05/16 03:02:00;;;;;;;12.43;5.13;;;14.50;73.70;;;;;;4983272;28;20489;-79
2022/05/16 03:04:25;;;;;;;8.15;4.47;;;14.40;80.00;;;;;;4999120;28;20482;-78
2022/05/16 03:06:51;;;;;;;9.70;4.28;;;14.40;77.10;;;;;;4980177;28;20112;-78
2022/05/16 03:09:17;;;;;;;11.82;4.85;;;14.40;73.40;;;;;;4980209;28;20676;-79
2022/05/16 03:11:44;;;;;;;8.52;4.78;;;14.40;75.80;;;;;;4983638;28;20061;-78
2022/05/16 03:14:10;;;;;;;5.38;4.47;;;14.30;79.60;;;;;;4982604;28;20560;-78
2022/05/16 03:16:36;;;;;;;12.38;5.20;;;14.30;77.20;;;;;;4983952;28;20034;-79
2022/05/16 03:19:02;;;;;;;10.98;5.25;;;14.30;84.20;;;;;;4995471;28;20603;-78
2022/05/16 03:21:27;;;;;;;11.30;4.78;;;14.30;83.00;;;;;;4985407;28;20446;-79
2022/05/16 03:23:53;;;;;;;9.55;4.63;;;14.30;77.20;;;;;;4991512;28;20033;-78
2022/05/16 03:26:18;;;;;;;10.70;5.18;;;14.30;78.60;;;;;;4964027;28;20026;-78
2022/05/16 03:28:44;;;;;;;6.57;4.22;;;14.20;78.60;;;;;;4968973;28;20065;-79
2022/05/16 03:31:10;;;;;;;12.43;5.40;;;14.20;80.50;;;;;;4993868;28;20068;-79
2022/05/16 03:33:35;;;;;;;10.93;5.70;;;14.30;79.00;;;;;;4965635;28;20169;-78
2022/05/16 03:36:01;;;;;;;9.07;4.85;;;14.10;84.80;;;;;;4977933;28;20026;-79
2022/05/16 03:41:11;;;;;;;10.02;5.05;;;14.00;92.60;;;;;;4996992;28;20100;-78
2022/05/16 03:43:37;;;;;;;11.05;5.68;;;14.00;91.00;;;;;;4979876;28;20110;-79
2022/05/16 03:46:03;;;;;;;11.82;5.57;;;14.00;93.70;;;;;;4983319;28;20121;-79
2022/05/16 03:48:28;;;;;;;8.65;5.10;;;14.00;93.50;;;;;;4980229;28;20034;-78
2022/05/16 03:50:54;;;;;;;10.20;6.22;;;14.00;90.10;;;;;;4969960;28;20042;-79
2022/05/16 03:53:19;;;;;;;7.32;4.85;;;13.90;93.10;;;;;;4980189;28;20034;-79
2022/05/16 03:55:45;;;;;;;10.38;5.35;;;13.90;94.00;;;;;;4993422;28;20034;-78
2022/05/16 03:58:10;;;;;;;13.45;5.57;;;13.80;97.60;;;;;;4980995;28;20442;-78
2022/05/16 04:00:36;;;;;;;11.13;5.53;;;13.90;95.80;;;;;;4992859;28;20030;-78
2022/05/16 04:03:01;;;;;;;8.77;5.25;;;13.90;97.40;;;;;;4964941;28;20049;-78
2022/05/16 04:05:27;;;;;;;6.70;4.45;;;13.90;99.90;;;;;;4983235;28;20038;-78
2022/05/16 04:07:53;;;;;;;8.55;5.75;;;13.90;94.00;;;;;;4993598;28;20034;-79
2022/05/16 04:10:20;;;;;;;10.07;5.85;;;13.90;99.40;;;;;;4993528;28;20121;-79
2022/05/16 04:12:45;;;;;;;13.02;6.63;;;14.00;91.30;;;;;;4983286;28;20602;-78
2022/05/16 04:15:12;;;;;;;6.88;5.80;;;14.00;90.20;;;;;;4982095;28;20061;-78
2022/05/16 04:17:38;;;;;;;15.40;6.07;;;13.90;93.00;;;;;;4967377;28;20052;-78
2022/05/16 04:20:04;;;;;;;12.25;5.78;;;13.90;97.70;;;;;;4979569;28;20430;-78
2022/05/16 04:22:30;;;;;;;15.60;6.05;;;14.00;96.00;;;;;;4977777;28;20030;-78
2022/05/16 04:24:56;;;;;;;5.38;3.80;;;14.10;92.30;;;;;;4995475;28;20061;-80
2022/05/16 04:27:22;;;;;;;12.20;5.50;;;14.20;90.60;;;;;;4983839;28;20062;-79
2022/05/16 04:29:47;;;;;;;10.55;6.50;;;14.30;91.80;;;;;;4980971;28;20042;-79
2022/05/16 04:32:13;;;;;;;11.02;5.38;;;14.40;89.50;;;;;;4979887;28;20065;-80
2022/05/16 04:34:38;;;;;;;10.95;6.78;;;14.40;95.80;;;;;;4974158;28;20064;-79
2022/05/16 04:37:04;;;;;;;11.05;6.60;;;14.40;90.30;;;;;;4978085;28;20053;-79
2022/05/16 04:39:29;;;;;;;10.00;5.53;;;14.40;92.90;;;;;;4975707;28;20133;-78
2022/05/16 04:44:39;;;;;;;10.82;4.80;;;14.40;93.60;;;;;;4997325;28;20145;-78
2022/05/16 04:47:06;;;;;;;10.68;5.97;;;14.70;90.60;;;;;;4981237;28;20429;-79
2022/05/16 04:49:31;;;;;;;12.20;6.05;;;14.80;90.10;;;;;;4996048;28;20053;-79
2022/05/16 04:51:58;;;;;;;7.88;5.70;;;14.90;90.10;;;;;;4982503;28;20032;-79
2022/05/16 04:54:24;;;;;;;9.00;6.22;;;14.90;88.20;;;;;;4965436;28;20046;-79
2022/05/16 04:56:51;;;;;;;13.40;5.70;;;15.00;90.60;;;;;;4970399;28;20053;-79
2022/05/16 04:59:20;;;;;;;14.57;5.85;;;15.10;89.20;;;;;;4980951;28;20038;-79
2022/05/16 05:01:46;;;;;;;9.30;4.82;;;15.20;88.40;;;;;;4978537;28;20490;-78
2022/05/16 05:04:11;;;;;;;8.77;5.80;;;15.40;88.30;;;;;;4994805;28;20053;-78
2022/05/16 05:06:37;;;;;;;7.00;5.93;;;15.50;89.80;;;;;;4974784;28;20339;-79
2022/05/16 05:09:02;;;;;;;11.88;6.07;;;15.60;89.70;;;;;;4965888;28;20080;-79
2022/05/16 05:16:56;;;;;;;6.82;5.30;;;16.20;91.20;;;;;;4984395;28;20037;-79
2022/05/16 05:19:22;;;;;;;8.52;5.10;;;16.40;90.20;;;;;;4979495;28;20037;-78
2022/05/16 05:21:48;;;;;;;19.65;6.40;;;16.60;90.10;;;;;;4987395;28;20026;-78
2022/05/16 05:24:13;;;;;;;10.05;6.13;;;16.80;90.80;;;;;;4979854;28;20057;-78
2022/05/16 05:26:39;;;;;;;10.02;5.47;;;17.10;90.70;;;;;;4994789;28;20038;-78
2022/05/16 05:29:05;;;;;;;9.82;5.07;;;17.20;91.20;;;;;;4978472;28;20023;-78
2022/05/16 05:31:31;;;;;;;11.43;5.22;;;17.50;91.90;;;;;;4979582;28;20118;-78
2022/05/16 05:33:57;;;;;;;9.15;5.35;;;17.90;92.00;;;;;;4979357;28;20026;-79
2022/05/16 05:36:23;;;;;;;10.15;5.18;;;18.20;92.10;;;;;;4999272;28;20498;-78
2022/05/16 05:38:51;;;;;;;6.75;4.75;;;18.40;91.40;;;;;;4979162;28;20062;-79
2022/05/16 05:41:17;;;;;;;9.07;5.95;;;18.60;91.40;;;;;;4992835;28;20068;-79
2022/05/16 05:43:43;;;;;;;10.60;6.80;;;18.80;91.70;;;;;;4962683;28;20148;-79
2022/05/16 05:46:08;;;;;;;11.95;5.95;;;18.90;91.90;;;;;;4991184;28;20540;-79
2022/05/16 05:48:34;;;;;;;13.90;7.13;;;19.00;91.70;;;;;;4961267;28;20054;-79
2022/05/16 05:50:59;;;;;;;9.27;5.57;;;19.20;92.20;;;;;;4981775;28;20132;-80
2022/05/16 05:53:25;;;;;;;8.95;5.43;;;19.40;92.00;;;;;;4983496;28;20478;-81
2022/05/16 05:55:51;;;;;;;14.75;5.60;;;19.60;92.20;;;;;;4994198;28;20410;-79
2022/05/16 05:58:16;;;;;;;13.98;5.43;;;19.90;92.00;;;;;;4981897;28;20224;-79
2022/05/16 06:00:43;;;;;;;13.13;5.40;;;20.10;92.00;;;;;;4979742;28;20038;-80
2022/05/16 06:03:08;;;;;;;9.77;4.53;;;20.20;91.60;;;;;;4989907;28;20039;-81
2022/05/16 06:05:34;;;;;;;10.93;4.57;;;20.30;91.30;;;;;;4967324;28;20085;-80
2022/05/16 06:07:59;;;;;;;12.75;3.83;;;20.40;91.00;;;;;;4977716;28;20037;-81
2022/05/16 06:10:25;;;;;;;10.02;4.00;;;20.50;90.70;;;;;;4982252;28;20262;-80
2022/05/16 06:12:50;;;;;;;7.68;4.13;;;20.60;90.40;;;;;;4974433;28;20418;-80
2022/05/16 06:15:16;;;;;;;7.13;3.65;;;20.60;89.90;;;;;;4976795;28;20030;-80
2022/05/16 06:17:43;;;;;;;6.40;3.60;;;20.70;89.70;;;;;;4984008;28;20030;-80
2022/05/16 06:20:09;;;;;;;9.45;4.05;;;20.80;90.00;;;;;;4996547;28;20027;-80
2022/05/16 06:22:35;;;;;;;8.95;4.13;;;21.00;90.00;;;;;;4981989;28;20502;-80
2022/05/16 06:27:50;;;;;;;7.20;4.43;;;21.20;89.40;;;;;;4988861;28;20088;-80
2022/05/16 06:30:19;;;;;;;8.40;4.22;;;21.30;88.60;;;;;;4994915;28;20508;-80
2022/05/16 06:32:47;;;;;;;7.43;3.63;;;21.50;88.50;;;;;;5004795;28;20043;-81
2022/05/16 06:35:13;;;;;;;10.50;4.80;;;21.60;87.60;;;;;;4991641;28;20081;-81
2022/05/16 06:37:38;;;;;;;7.38;3.80;;;21.70;87.50;;;;;;4971469;28;20406;-80
2022/05/16 06:40:05;;;;;;;9.13;4.07;;;21.80;87.10;;;;;;4982071;28;20022;-80
2022/05/16 06:42:30;;;;;;;10.95;3.65;;;21.80;86.70;;;;;;4988085;28;20467;-80
2022/05/16 06:44:56;;;;;;;8.63;3.40;;;21.90;86.90;;;;;;4988385;28;20113;-80
2022/05/16 06:47:21;;;;;;;10.23;3.92;;;22.10;86.10;;;;;;4987162;28;20044;-80
2022/05/16 06:49:48;;;;;;;11.77;4.15;;;22.10;86.40;;;;;;4983107;28;20088;-80
2022/05/16 06:52:16;;;;;;;9.93;3.40;;;22.30;85.80;;;;;;4982564;28;20026;-81
2022/05/16 06:54:42;;;;;;;7.65;3.38;;;22.40;85.30;;;;;;4978906;28;20061;-80
2022/05/16 06:57:07;;;;;;;7.47;3.90;;;22.50;85.00;;;;;;4989783;28;20037;-81
2022/05/16 06:59:33;;;;;;;6.60;3.63;;;22.70;84.60;;;;;;4965909;28;20030;-81
2022/05/16 07:01:58;;;;;;;6.55;2.90;;;22.90;84.60;;;;;;4996161;28;20045;-80
2022/05/16 07:04:24;;;;;;;5.70;2.60;;;23.00;83.40;;;;;;4986887;28;20478;-81
2022/05/16 07:06:49;;;;;;;5.03;2.50;;;23.00;78.60;;;;;;4972366;28;20030;-80
2022/05/16 07:09:15;;;;;;;4.95;2.95;;;22.90;76.70;;;;;;4984113;28;20026;-80
2022/05/16 07:11:40;;;;;;;6.35;2.70;;;22.90;78.70;;;;;;4970090;28;20042;-80
2022/05/16 07:14:06;;;;;;;5.82;2.80;;;23.10;77.40;;;;;;4986994;28;20113;-81
2022/05/16 07:16:32;;;;;;;8.98;2.78;;;23.10;75.50;;;;;;4966836;28;20034;-82
2022/05/16 07:18:57;;;;;;;6.32;2.83;;;22.90;72.70;;;;;;4998725;28;20041;-80
2022/05/16 07:21:23;;;;;;;4.78;2.53;;;23.10;75.10;;;;;;4977201;28;20383;-80
2022/05/16 07:23:48;;;;;;;8.02;2.65;;;23.00;74.50;;;;;;4994706;28;20093;-80
2022/05/16 07:28:58;;;;;;;6.97;2.40;;;22.50;70.00;;;;;;4995243;28;20114;-81
2022/05/16 07:31:25;;;;;;;7.90;3.08;;;22.50;71.00;;;;;;4980542;28;20120;-81
2022/05/16 07:33:51;;;;;;;5.93;2.28;;;22.60;70.90;;;;;;4986233;28;20057;-81
2022/05/16 07:36:16;;;;;;;3.15;2.22;;;22.50;71.80;;;;;;4995111;28;20049;-81
2022/05/16 07:38:42;;;;;;;8.88;3.17;;;22.40;69.60;;;;;;4986037;28;20295;-81
2022/05/16 07:41:09;;;;;;;4.93;2.53;;;22.70;70.90;;;;;;4991250;28;20034;-81
2022/05/16 07:43:35;;;;;;;3.75;2.40;;;22.60;68.70;;;;;;4966224;28;20061;-80
2022/05/16 07:46:01;;;;;;;6.80;2.80;;;22.70;68.80;;;;;;4985653;28;20030;-81
2022/05/16 07:48:26;;;;;;;3.25;2.00;;;22.70;68.30;;;;;;4981741;28;20164;-81
2022/05/16 07:50:52;;;;;;;6.53;3.28;;;22.80;68.40;;;;;;5002523;28;20096;-81
2022/05/16 07:53:17;;;;;;;6.05;2.70;;;22.90;67.70;;;;;;4997497;28;20117;-82
2022/05/16 07:55:45;;;;;;;3.95;2.40;;;23.00;68.00;;;;;;4982660;28;20057;-81
2022/05/16 07:58:11;;;;;;;7.65;2.78;;;23.00;68.50;;;;;;4980557;28;20058;-81
2022/05/16 08:00:37;;;;;;;5.80;2.33;;;23.40;72.40;;;;;;4963834;28;20524;-81
2022/05/16 08:03:04;;;;;;;4.07;2.42;;;23.70;71.50;;;;;;4980754;28;20096;-81
2022/05/16 08:05:29;;;;;;;8.77;2.75;;;23.80;69.40;;;;;;4981920;28;21440;-81
2022/05/16 08:10:39;;;;;;;3.80;2.38;;;24.00;71.20;;;;;;4997411;28;20038;-81
2022/05/16 08:13:06;;;;;;;6.35;2.55;;;24.20;69.90;;;;;;4986588;28;20482;-81
2022/05/16 08:15:33;;;;;;;5.25;2.35;;;24.30;67.50;;;;;;4997859;28;20446;-82
2022/05/16 08:17:59;;;;;;;5.22;2.40;;;24.30;69.60;;;;;;4978711;28;20387;-82
2022/05/16 08:20:25;;;;;;;6.38;2.70;;;24.50;65.90;;;;;;4984585;28;20034;-82
2022/05/16 08:22:51;;;;;;;2.45;1.90;;;24.70;68.00;;;;;;4997477;28;20034;-81
2022/05/16 08:25:17;;;;;;;6.90;2.05;;;24.70;65.10;;;;;;4982558;28;20033;-82
2022/05/16 08:27:42;;;;;;;7.32;2.35;;;24.80;66.00;;;;;;4997232;28;20437;-81
2022/05/16 08:30:09;;;;;;;5.43;2.20;;;24.20;65.80;;;;;;4978752;28;20057;-82
2022/05/16 08:32:35;;;;;;;9.35;2.80;;;24.60;66.80;;;;;;4965106;28;20034;-82
2022/05/16 08:35:03;;;;;;;5.25;2.25;;;25.10;68.40;;;;;;4986209;28;20036;-82
2022/05/16 08:40:14;;;;;;;11.25;2.97;;;24.90;66.10;;;;;;5002766;28;20099;-82
2022/05/16 08:42:56;;;;;;;3.67;2.05;;;25.00;68.50;;;;;;4979090;28;20029;-82
2022/05/16 08:45:31;;;;;;;7.57;2.47;;;24.90;65.60;;;;;;4983085;28;20050;-82
2022/05/16 08:48:22;;;;;;;5.63;2.60;;;24.60;67.50;;;;;;4987144;28;20025;-82
2022/05/16 08:50:52;;;;;;;7.95;2.67;;;24.70;68.80;;;;;;4977764;28;20062;-82
2022/05/16 08:53:24;;;;;;;4.28;2.67;;;24.60;65.30;;;;;;4995694;28;20056;-83
2022/05/16 08:55:55;;;;;;;9.32;2.25;;;24.50;69.10;;;;;;4983140;28;20034;-82
2022/05/16 08:58:33;;;;;;;7.78;2.63;;;24.40;66.80;;;;;;4966860;28;20080;-82
2022/05/16 09:01:03;;;;;;;8.60;2.83;;;24.60;67.50;;;;;;4983480;28;20091;-82
2022/05/16 09:03:39;;;;;;;6.70;2.42;;;24.10;66.60;;;;;;4979773;28;20065;-82
2022/05/16 09:06:31;;;;;;;3.97;2.38;;;24.20;67.20;;;;;;4984154;28;20034;-82
2022/05/16 09:09:19;;;;;;;11.57;3.05;;;24.10;66.50;;;;;;4995721;28;20383;-82
2022/05/16 09:12:15;;;;;;;9.07;3.05;;;24.40;69.20;;;;;;4984802;28;20478;-82
2022/05/16 09:14:51;;;;;;;4.00;2.10;;;24.70;68.60;;;;;;4986411;28;20516;-82
2022/05/16 09:17:49;;;;;;;4.95;2.28;;;24.60;66.80;;;;;;4995302;28;20030;-82
2022/05/16 09:20:35;;;;;;;3.45;1.90;;;24.60;65.90;;;;;;4961725;28;20088;-82
2022/05/16 09:23:19;;;;;;;6.88;2.50;;;24.40;68.50;;;;;;4998629;28;20525;-82
2022/05/16 09:26:38;;;;;;;4.10;2.65;;;24.20;67.40;;;;;;4994986;28;20029;-82
2022/05/16 09:29:24;;;;;;;7.82;2.95;;;24.40;69.10;;;;;;4955030;28;20056;-82
2022/05/16 09:31:52;;;;;;;3.83;2.50;;;24.70;66.40;;;;;;4995867;28;20022;-82
2022/05/16 09:34:18;;;;;;;6.00;2.40;;;24.40;67.30;;;;;;4982923;28;20216;-82
2022/05/16 09:36:46;;;;;;;8.45;2.88;;;24.10;68.40;;;;;;4982704;28;20037;-83
2022/05/16 09:39:12;;;;;;;6.93;2.78;;;24.60;68.40;;;;;;4982632;28;20057;-82
2022/05/16 09:41:43;;;;;;;7.97;2.65;;;24.60;67.40;;;;;;4963760;28;20405;-82
2022/05/16 09:44:14;;;;;;;6.55;2.47;;;24.70;69.20;;;;;;4981695;28;20512;-83
2022/05/16 09:46:42;;;;;;;6.10;2.63;;;25.00;69.00;;;;;;4995590;28;20103;-83
2022/05/16 09:49:24;;;;;;;7.55;2.67;;;25.10;68.90;;;;;;4971632;28;20041;-83
2022/05/16 09:51:57;;;;;;;4.55;2.35;;;25.50;68.50;;;;;;4981126;28;20102;-83
2022/05/16 09:54:37;;;;;;;4.20;2.75;;;25.60;68.80;;;;;;4982921;28;20466;-83
2022/05/16 09:57:20;;;;;;;8.63;2.78;;;25.90;70.80;;;;;;5005456;28;20092;-84
2022/05/16 09:59:54;;;;;;;7.43;2.25;;;26.20;66.60;;;;;;4985228;28;20088;-84
2022/05/16 10:02:34;;;;;;;5.03;2.40;;;26.80;67.50;;;;;;4988525;28;20030;-84
2022/05/16 10:05:01;;;;;;;5.93;2.60;;;27.00;67.70;;;;;;4991206;28;20058;-85
2022/05/16 10:07:40;;;;;;;5.32;2.88;;;26.90;68.00;;;;;;4971237;28;20431;-85
2022/05/16 10:10:06;;;;;;;3.67;2.10;;;26.90;64.50;;;;;;4986728;28;20573;-85
2022/05/16 10:12:32;;;;;;;3.83;2.10;;;27.30;66.70;;;;;;4981350;28;20169;-85
2022/05/16 10:14:59;;;;;;;9.07;2.67;;;27.80;68.10;;;;;;5001615;28;20027;-85
2022/05/16 10:17:28;;;;;;;3.80;2.38;;;27.90;65.40;;;;;;4984852;28;20034;-85
2022/05/16 10:20:01;;;;;;;6.75;2.35;;;28.00;65.00;;;;;;4985208;28;20174;-85
2022/05/16 10:22:27;;;;;;;4.00;2.15;;;28.20;66.70;;;;;;4998890;28;20060;-85
2022/05/16 10:24:54;;;;;;;3.47;2.30;;;28.60;67.00;;;;;;4986977;28;20050;-85
2022/05/16 10:27:33;;;;;;;8.95;2.35;;;28.80;62.70;;;;;;4979590;28;20046;-84
2022/05/16 10:30:04;;;;;;;7.10;2.97;;;28.90;62.40;;;;;;4984773;28;20112;-84
2022/05/16 10:35:26;;;;;;;4.85;2.50;;;29.50;63.90;;;;;;4986184;28;20057;-84
2022/05/16 10:37:52;;;;;;;7.72;2.45;;;30.00;64.00;;;;;;4987137;28;20093;-83
2022/05/16 10:40:33;;;;;;;11.30;3.05;;;30.00;64.40;;;;;;4980015;28;20451;-83
2022/05/16 10:43:04;;;;;;;4.85;2.13;;;30.70;62.00;;;;;;4995904;28;20036;-82
2022/05/16 10:45:30;;;;;;;4.55;2.20;;;30.50;61.30;;;;;;4986771;28;20034;-80
2022/05/16 10:48:01;;;;;;;7.40;2.50;;;31.00;61.90;;;;;;4991625;28;20394;-82
2022/05/16 10:50:29;;;;;;;5.25;2.17;;;31.10;61.90;;;;;;4997867;28;20034;-79
2022/05/16 10:53:17;;;;;;;4.40;2.03;;;31.70;59.80;;;;;;4973491;28;20034;-80
2022/05/16 10:56:43;;;;;;;7.93;2.83;;;31.90;59.50;;;;;;5007528;28;20037;-80
2022/05/16 10:59:21;;;;;;;7.32;2.50;;;32.20;59.70;;;;;;4929920;28;20121;-78
2022/05/16 11:01:54;;;;;;;3.80;1.90;;;32.40;59.30;;;;;;4940956;28;20422;-79
2022/05/16 11:04:31;;;;;;;3.75;1.70;;;32.60;57.90;;;;;;4274691;28;10000381;-79
2022/05/16 11:07:05;;;;;;;5.72;1.75;;;32.70;56.70;;;;;;4979450;28;20030;-78
2022/05/16 11:09:36;;;;;;;4.03;2.20;;;32.80;55.70;;;;;;4994041;28;20537;-78
2022/05/16 11:12:24;;;;;;;3.05;1.85;;;33.00;56.10;;;;;;5008720;28;22862;-78
2022/05/16 11:14:56;;;;;;;3.28;1.67;;;33.30;55.40;;;;;;4989995;28;20046;-78
2022/05/16 11:17:28;;;;;;;3.80;2.00;;;32.20;53.70;;;;;;4994618;28;20042;-78
2022/05/16 11:20:07;;;;;;;5.60;2.85;;;32.60;56.10;;;;;;4978633;28;20039;-80
2022/05/16 11:22:41;;;;;;;8.52;2.28;;;33.30;54.60;;;;;;4993368;28;20034;-76
2022/05/16 11:25:07;;;;;;;4.35;2.10;;;33.90;55.40;;;;;;4982222;28;20033;-79
2022/05/16 11:27:55;;;;;;;4.07;2.10;;;34.20;54.60;;;;;;4995718;28;20031;-77
2022/05/16 11:30:30;;;;;;;3.58;1.90;;;34.50;54.00;;;;;;4994860;28;20030;-76
2022/05/16 11:33:13;;;;;;;8.07;2.25;;;35.00;53.30;;;;;;4969413;28;20052;-78
2022/05/16 11:35:47;;;;;;;3.10;1.70;;;35.40;52.60;;;;;;4970016;28;20042;-76
2022/05/16 11:38:40;;;;;;;1.98;1.80;;;35.50;52.30;;;;;;4965633;28;20088;-76
2022/05/16 11:41:19;;;;;;;2.28;1.70;;;35.90;52.40;;;;;;4982847;28;20105;-76
2022/05/16 11:43:46;;;;;;;5.10;1.70;;;35.50;50.70;;;;;;4980455;28;20042;-79
2022/05/16 11:46:41;;;;;;;2.22;1.48;;;35.50;50.70;;;;;;4993998;28;20040;-75
2022/05/16 11:49:16;;;;;;;2.33;1.75;;;35.30;51.10;;;;;;4971051;28;20033;-76
2022/05/16 11:52:09;;;;;;;3.22;1.80;;;36.00;50.90;;;;;;4975953;28;20038;-77
2022/05/16 11:54:39;;;;;;;5.43;1.80;;;36.20;49.40;;;;;;4961004;28;20084;-77
2022/05/16 12:00:31;;;;;;;5.20;2.00;;;36.10;49.30;;;;;;4991361;28;20076;-76
2022/05/16 12:02:51;;;;;;;4.70;1.92;;;36.10;48.00;;;;;;4981927;28;20486;-76
2022/05/16 12:05:22;;;;;;;7.28;2.17;;;36.10;47.90;;;;;;4990655;28;20479;-76
2022/05/16 12:07:57;;;;;;;4.97;1.70;;;36.60;47.80;;;;;;4993281;28;20030;-77
2022/05/16 12:10:26;;;;;;;5.40;2.03;;;36.60;47.90;;;;;;4983663;28;20031;-76
2022/05/16 12:13:18;;;;;;;7.25;1.80;;;36.50;46.80;;;;;;4992239;28;20103;-76
2022/05/16 12:15:43;;;;;;;5.80;1.48;;;36.40;46.00;;;;;;4977520;28;20434;-76
2022/05/16 12:18:33;;;;;;;2.95;1.50;;;36.20;46.50;;;;;;4969381;28;20030;-75
2022/05/16 12:20:58;;;;;;;3.40;1.92;;;36.20;46.60;;;;;;4994943;28;20038;-78
2022/05/16 12:23:48;;;;;;;4.47;2.00;;;35.90;46.30;;;;;;4998047;28;20026;-75
2022/05/16 12:26:26;;;;;;;1.85;1.42;;;35.70;45.40;;;;;;4992653;28;20034;-77
2022/05/16 12:29:13;;;;;;;7.95;2.35;;;35.50;45.90;;;;;;4996899;28;20184;-75
2022/05/16 12:31:44;;;;;;;4.28;1.98;;;35.30;46.30;;;;;;5002368;28;20418;-76
2022/05/16 12:34:11;;;;;;;5.70;1.95;;;35.10;46.60;;;;;;4999346;28;20088;-77
2022/05/16 12:36:37;;;;;;;6.13;2.20;;;34.70;47.20;;;;;;4996378;28;20128;-75
2022/05/16 12:39:13;;;;;;;10.80;2.00;;;34.50;47.40;;;;;;4980275;28;20225;-75
2022/05/16 12:42:21;;;;;;;4.47;1.73;;;34.30;48.00;;;;;;4980096;28;20061;-75
2022/05/16 12:44:56;;;;;;;4.43;1.35;;;34.00;48.40;;;;;;4956173;28;20076;-75
2022/05/16 12:47:40;;;;;;;6.07;2.40;;;33.80;48.40;;;;;;4980558;28;20033;-75
2022/05/16 12:50:16;;;;;;;3.53;1.90;;;33.40;48.60;;;;;;5009114;28;20128;-75
2022/05/16 12:53:00;;;;;;;5.10;1.90;;;33.30;48.10;;;;;;4996830;28;20126;-75
2022/05/16 12:56:03;;;;;;;2.60;1.75;;;33.20;47.60;;;;;;4991594;28;20057;-76
2022/05/16 12:58:46;;;;;;;4.07;1.80;;;33.30;47.90;;;;;;4982382;28;20548;-75
2022/05/16 13:01:48;;;;;;;3.78;1.90;;;33.50;48.00;;;;;;4993882;28;20034;-76
2022/05/16 13:04:24;;;;;;;2.85;1.80;;;33.50;48.20;;;;;;4952776;28;20088;-76
2022/05/16 13:07:02;;;;;;;5.72;2.63;;;33.50;48.40;;;;;;4979260;28;20034;-75
2022/05/16 13:09:50;;;;;;;5.40;2.45;;;33.50;48.80;;;;;;4983315;28;20449;-75
2022/05/16 13:12:23;;;;;;;7.05;2.80;;;33.50;49.10;;;;;;4999180;28;20038;-75
2022/05/16 13:14:58;;;;;;;7.85;2.78;;;33.70;49.30;;;;;;4985405;28;20041;-75
2022/05/16 13:17:35;;;;;;;8.65;3.25;;;33.60;49.80;;;;;;4995718;28;20062;-75
2022/05/16 13:20:07;;;;;;;7.32;3.10;;;33.60;50.00;;;;;;4985994;28;20050;-77
2022/05/16 13:22:33;;;;;;;4.90;2.60;;;33.50;50.10;;;;;;4993247;28;20023;-75
2022/05/16 13:24:58;;;;;;;6.57;3.25;;;33.30;50.30;;;;;;4994969;28;20044;-75
2022/05/16 13:30:16;;;;;;;12.10;3.63;;;32.90;58.60;;;;;;4995125;28;20088;-75
2022/05/16 13:32:41;;;;;;;19.63;5.47;;;32.00;59.40;;;;;;4996665;28;20060;-78
2022/05/16 13:35:09;;;;;;;20.45;5.15;;;30.80;69.70;;;;;;4981797;28;20510;-79